sensor_id;sensor_type;location;lat;lon;timestamp;temperature;humidity
13798;DHT22;6970;51.340;3.240;2022-08-19T00:01:04;19.10;99.90
13798;DHT22;6970;51.340;3.240;2022-08-19T00:03:34;19.10;99.90
13798;DHT22;6970;51.340;3.240;2022-08-19T00:06:04;19.10;99.90
13798;DHT22;6970;51.340;3.240;2022-08-19T00:08:33;19.00;99.90
13798;DHT22;6970;51.340;3.240;2022-08-19T00:11:03;19.00;99.90
13798;DHT22;6970;51.340;3.240;2022-08-19T00:13:31;19.00;99.90
13798;DHT22;6970;51.340;3.240;2022-08-19T00:16:02;19.00;99.90
13798;DHT22;6970;51.340;3.240;2022-08-19T00:18:32;19.00;99.90
13798;DHT22;6970;51.340;3.240;2022-08-19T00:21:16;19.00;99.90
13798;DHT22;6970;51.340;3.240;2022-08-19T00:23:47;18.90;99.90
13798;DHT22;6970;51.340;3.240;2022-08-19T00:26:18;18.90;99.90
13798;DHT22;6970;51.340;3.240;2022-08-19T00:28:45;18.80;99.90
13798;DHT22;6970;51.340;3.240;2022-08-19T00:31:16;18.80;99.90
13798;DHT22;6970;51.340;3.240;2022-08-19T00:33:47;18.80;99.90
13798;DHT22;6970;51.340;3.240;2022-08-19T00:36:18;18.80;99.90
13798;DHT22;6970;51.340;3.240;2022-08-19T00:38:48;18.80;99.90
13798;DHT22;6970;51.340;3.240;2022-08-19T00:41:19;18.70;99.90
13798;DHT22;6970;51.340;3.240;2022-08-19T00:44:13;18.70;99.90
13798;DHT22;6970;51.340;3.240;2022-08-19T00:46:43;18.70;99.90
13798;DHT22;6970;51.340;3.240;2022-08-19T00:49:45;18.70;99.90
13798;DHT22;6970;51.340;3.240;2022-08-19T00:52:27;18.60;99.90
13798;DHT22;6970;51.340;3.240;2022-08-19T00:55:01;18.60;99.90
13798;DHT22;6970;51.340;3.240;2022-08-19T00:57:35;18.60;99.90
13798;DHT22;6970;51.340;3.240;2022-08-19T01:00:07;18.50;99.90
13798;DHT22;6970;51.340;3.240;2022-08-19T01:02:39;18.50;99.90
13798;DHT22;6970;51.340;3.240;2022-08-19T01:05:19;18.50;99.90
13798;DHT22;6970;51.340;3.240;2022-08-19T01:07:51;18.50;99.90
13798;DHT22;6970;51.340;3.240;2022-08-19T01:10:27;18.40;99.90
13798;DHT22;6970;51.340;3.240;2022-08-19T01:13:05;18.40;99.90
13798;DHT22;6970;51.340;3.240;2022-08-19T01:15:43;18.40;99.90
13798;DHT22;6970;51.340;3.240;2022-08-19T01:18:16;18.40;99.90
13798;DHT22;6970;51.340;3.240;2022-08-19T01:20:47;18.40;99.90
13798;DHT22;6970;51.340;3.240;2022-08-19T01:23:17;18.40;99.90
13798;DHT22;6970;51.340;3.240;2022-08-19T01:25:50;18.40;99.90
13798;DHT22;6970;51.340;3.240;2022-08-19T01:28:23;18.40;99.90
13798;DHT22;6970;51.340;3.240;2022-08-19T01:31:15;18.40;99.90
13798;DHT22;6970;51.340;3.240;2022-08-19T01:33:57;18.40;99.90
13798;DHT22;6970;51.340;3.240;2022-08-19T01:36:38;18.40;99.90
13798;DHT22;6970;51.340;3.240;2022-08-19T01:39:13;18.40;99.90
13798;DHT22;6970;51.340;3.240;2022-08-19T01:41:40;18.40;99.90
13798;DHT22;6970;51.340;3.240;2022-08-19T01:44:09;18.40;99.90
13798;DHT22;6970;51.340;3.240;2022-08-19T01:46:46;18.40;99.90
13798;DHT22;6970;51.340;3.240;2022-08-19T01:49:15;18.30;99.90
13798;DHT22;6970;51.340;3.240;2022-08-19T01:51:43;18.30;99.90
13798;DHT22;6970;51.340;3.240;2022-08-19T01:54:12;18.30;99.90
13798;DHT22;6970;51.340;3.240;2022-08-19T01:56:53;18.30;99.90
13798;DHT22;6970;51.340;3.240;2022-08-19T01:59:23;18.30;99.90
13798;DHT22;6970;51.340;3.240;2022-08-19T02:01:53;18.30;99.90
13798;DHT22;6970;51.340;3.240;2022-08-19T02:04:24;18.30;99.90
13798;DHT22;6970;51.340;3.240;2022-08-19T02:06:57;18.30;99.90
13798;DHT22;6970;51.340;3.240;2022-08-19T02:09:27;18.30;99.90
13798;DHT22;6970;51.340;3.240;2022-08-19T02:11:57;18.30;99.90
13798;DHT22;6970;51.340;3.240;2022-08-19T02:17:46;18.30;99.90
13798;DHT22;6970;51.340;3.240;2022-08-19T02:20:14;18.30;99.90
13798;DHT22;6970;51.340;3.240;2022-08-19T02:22:42;18.30;99.90
13798;DHT22;6970;51.340;3.240;2022-08-19T02:25:11;18.30;99.90
13798;DHT22;6970;51.340;3.240;2022-08-19T02:27:39;18.30;99.90
13798;DHT22;6970;51.340;3.240;2022-08-19T02:30:12;18.30;99.90
13798;DHT22;6970;51.340;3.240;2022-08-19T02:32:40;18.30;99.90
13798;DHT22;6970;51.340;3.240;2022-08-19T02:35:17;18.30;99.90
13798;DHT22;6970;51.340;3.240;2022-08-19T02:37:47;18.30;99.90
13798;DHT22;6970;51.340;3.240;2022-08-19T02:40:36;18.30;99.90
13798;DHT22;6970;51.340;3.240;2022-08-19T02:43:08;18.30;99.90
13798;DHT22;6970;51.340;3.240;2022-08-19T02:45:38;18.40;99.90
13798;DHT22;6970;51.340;3.240;2022-08-19T02:48:07;18.40;99.90
13798;DHT22;6970;51.340;3.240;2022-08-19T02:50:51;18.40;99.90
13798;DHT22;6970;51.340;3.240;2022-08-19T02:53:27;18.30;99.90
13798;DHT22;6970;51.340;3.240;2022-08-19T02:55:58;18.30;99.90
13798;DHT22;6970;51.340;3.240;2022-08-19T02:58:28;18.30;99.90
13798;DHT22;6970;51.340;3.240;2022-08-19T03:00:56;18.20;99.90
13798;DHT22;6970;51.340;3.240;2022-08-19T03:03:27;18.20;99.90
13798;DHT22;6970;51.340;3.240;2022-08-19T03:06:12;18.20;99.90
13798;DHT22;6970;51.340;3.240;2022-08-19T03:08:44;18.20;99.90
13798;DHT22;6970;51.340;3.240;2022-08-19T03:11:21;18.20;99.90
13798;DHT22;6970;51.340;3.240;2022-08-19T03:13:52;18.20;99.90
13798;DHT22;6970;51.340;3.240;2022-08-19T03:16:24;18.10;99.90
13798;DHT22;6970;51.340;3.240;2022-08-19T03:18:56;18.10;99.90
13798;DHT22;6970;51.340;3.240;2022-08-19T03:21:32;18.10;99.90
13798;DHT22;6970;51.340;3.240;2022-08-19T03:24:06;18.10;99.90
13798;DHT22;6970;51.340;3.240;2022-08-19T03:26:40;18.10;99.90
13798;DHT22;6970;51.340;3.240;2022-08-19T03:29:13;18.20;99.90
13798;DHT22;6970;51.340;3.240;2022-08-19T03:31:54;18.20;99.90
13798;DHT22;6970;51.340;3.240;2022-08-19T03:34:26;18.10;99.90
13798;DHT22;6970;51.340;3.240;2022-08-19T03:36:58;18.10;99.90
13798;DHT22;6970;51.340;3.240;2022-08-19T03:39:28;18.10;99.90
13798;DHT22;6970;51.340;3.240;2022-08-19T03:41:55;18.10;99.90
13798;DHT22;6970;51.340;3.240;2022-08-19T03:44:46;18.10;99.90
13798;DHT22;6970;51.340;3.240;2022-08-19T03:47:19;18.10;99.90
13798;DHT22;6970;51.340;3.240;2022-08-19T03:49:47;18.10;99.90
13798;DHT22;6970;51.340;3.240;2022-08-19T03:52:16;18.10;99.90
13798;DHT22;6970;51.340;3.240;2022-08-19T03:54:51;18.10;99.90
13798;DHT22;6970;51.340;3.240;2022-08-19T03:57:21;18.10;99.90
13798;DHT22;6970;51.340;3.240;2022-08-19T03:59:58;18.20;99.90
13798;DHT22;6970;51.340;3.240;2022-08-19T04:02:42;18.20;99.90
13798;DHT22;6970;51.340;3.240;2022-08-19T04:05:27;18.30;99.90
13798;DHT22;6970;51.340;3.240;2022-08-19T04:07:55;18.30;99.90
13798;DHT22;6970;51.340;3.240;2022-08-19T04:10:26;18.30;99.90
13798;DHT22;6970;51.340;3.240;2022-08-19T04:12:55;18.30;99.90
13798;DHT22;6970;51.340;3.240;2022-08-19T04:15:24;18.30;99.90
13798;DHT22;6970;51.340;3.240;2022-08-19T04:17:54;18.30;99.90
13798;DHT22;6970;51.340;3.240;2022-08-19T04:20:24;18.30;99.90
13798;DHT22;6970;51.340;3.240;2022-08-19T04:22:51;18.30;99.90
13798;DHT22;6970;51.340;3.240;2022-08-19T04:25:22;18.30;99.90
13798;DHT22;6970;51.340;3.240;2022-08-19T04:27:49;18.30;99.90
13798;DHT22;6970;51.340;3.240;2022-08-19T04:30:19;18.30;99.90
13798;DHT22;6970;51.340;3.240;2022-08-19T04:32:52;18.30;99.90
13798;DHT22;6970;51.340;3.240;2022-08-19T04:35:22;18.30;99.90
13798;DHT22;6970;51.340;3.240;2022-08-19T04:37:56;18.30;99.90
13798;DHT22;6970;51.340;3.240;2022-08-19T04:40:26;18.40;99.90
13798;DHT22;6970;51.340;3.240;2022-08-19T04:43:12;18.40;99.90
13798;DHT22;6970;51.340;3.240;2022-08-19T04:45:43;18.40;99.90
13798;DHT22;6970;51.340;3.240;2022-08-19T04:48:23;18.40;99.90
13798;DHT22;6970;51.340;3.240;2022-08-19T04:50:57;18.40;99.90
13798;DHT22;6970;51.340;3.240;2022-08-19T04:53:27;18.40;99.90
13798;DHT22;6970;51.340;3.240;2022-08-19T04:56:13;18.50;99.90
13798;DHT22;6970;51.340;3.240;2022-08-19T04:58:44;18.50;99.90
13798;DHT22;6970;51.340;3.240;2022-08-19T05:01:20;18.50;99.90
13798;DHT22;6970;51.340;3.240;2022-08-19T05:03:51;18.50;99.90
13798;DHT22;6970;51.340;3.240;2022-08-19T05:06:22;18.60;99.90
13798;DHT22;6970;51.340;3.240;2022-08-19T05:08:49;18.60;99.90
13798;DHT22;6970;51.340;3.240;2022-08-19T05:11:24;18.60;99.90
13798;DHT22;6970;51.340;3.240;2022-08-19T05:13:52;18.70;99.90
13798;DHT22;6970;51.340;3.240;2022-08-19T05:16:23;18.80;99.90
13798;DHT22;6970;51.340;3.240;2022-08-19T05:18:55;18.90;99.90
13798;DHT22;6970;51.340;3.240;2022-08-19T05:21:44;19.00;99.90
13798;DHT22;6970;51.340;3.240;2022-08-19T05:24:33;19.10;99.90
13798;DHT22;6970;51.340;3.240;2022-08-19T05:27:04;19.10;99.90
13798;DHT22;6970;51.340;3.240;2022-08-19T05:29:33;19.30;99.90
13798;DHT22;6970;51.340;3.240;2022-08-19T05:32:05;19.40;99.90
13798;DHT22;6970;51.340;3.240;2022-08-19T05:34:44;19.50;99.90
13798;DHT22;6970;51.340;3.240;2022-08-19T05:37:12;19.60;99.90
13798;DHT22;6970;51.340;3.240;2022-08-19T05:39:42;19.70;99.90
13798;DHT22;6970;51.340;3.240;2022-08-19T05:42:15;19.70;99.90
13798;DHT22;6970;51.340;3.240;2022-08-19T05:44:46;19.80;99.90
13798;DHT22;6970;51.340;3.240;2022-08-19T05:47:14;19.90;99.90
13798;DHT22;6970;51.340;3.240;2022-08-19T05:49:42;19.90;99.90
13798;DHT22;6970;51.340;3.240;2022-08-19T05:52:28;20.00;99.90
13798;DHT22;6970;51.340;3.240;2022-08-19T05:55:03;20.10;99.90
13798;DHT22;6970;51.340;3.240;2022-08-19T05:57:35;20.10;99.90
13798;DHT22;6970;51.340;3.240;2022-08-19T06:00:05;20.10;99.90
13798;DHT22;6970;51.340;3.240;2022-08-19T06:02:40;20.20;99.90
13798;DHT22;6970;51.340;3.240;2022-08-19T06:08:20;20.20;99.90
13798;DHT22;6970;51.340;3.240;2022-08-19T06:14:11;20.20;99.90
13798;DHT22;6970;51.340;3.240;2022-08-19T06:16:43;20.30;99.90
13798;DHT22;6970;51.340;3.240;2022-08-19T06:19:18;20.30;99.90
13798;DHT22;6970;51.340;3.240;2022-08-19T06:21:49;20.20;99.90
13798;DHT22;6970;51.340;3.240;2022-08-19T06:24:22;20.20;99.90
13798;DHT22;6970;51.340;3.240;2022-08-19T06:26:54;20.20;99.90
13798;DHT22;6970;51.340;3.240;2022-08-19T06:29:28;20.20;99.90
13798;DHT22;6970;51.340;3.240;2022-08-19T06:31:57;20.20;99.90
13798;DHT22;6970;51.340;3.240;2022-08-19T06:34:26;20.10;99.90
13798;DHT22;6970;51.340;3.240;2022-08-19T06:36:58;20.10;99.90
13798;DHT22;6970;51.340;3.240;2022-08-19T06:39:30;20.10;99.90
13798;DHT22;6970;51.340;3.240;2022-08-19T06:42:03;20.10;99.90
13798;DHT22;6970;51.340;3.240;2022-08-19T06:44:40;20.10;99.90
13798;DHT22;6970;51.340;3.240;2022-08-19T06:47:13;20.10;99.90
13798;DHT22;6970;51.340;3.240;2022-08-19T06:49:53;20.20;99.90
13798;DHT22;6970;51.340;3.240;2022-08-19T06:52:28;20.20;99.90
13798;DHT22;6970;51.340;3.240;2022-08-19T06:54:58;20.20;99.90
13798;DHT22;6970;51.340;3.240;2022-08-19T06:57:29;20.20;99.90
13798;DHT22;6970;51.340;3.240;2022-08-19T07:00:01;20.30;99.90
13798;DHT22;6970;51.340;3.240;2022-08-19T07:02:29;20.30;99.90
13798;DHT22;6970;51.340;3.240;2022-08-19T07:04:56;20.40;99.90
13798;DHT22;6970;51.340;3.240;2022-08-19T07:07:35;20.50;99.90
13798;DHT22;6970;51.340;3.240;2022-08-19T07:10:06;20.50;99.90
13798;DHT22;6970;51.340;3.240;2022-08-19T07:12:36;20.50;99.90
13798;DHT22;6970;51.340;3.240;2022-08-19T07:15:10;20.50;99.90
13798;DHT22;6970;51.340;3.240;2022-08-19T07:17:40;20.60;99.90
13798;DHT22;6970;51.340;3.240;2022-08-19T07:20:10;20.60;99.90
13798;DHT22;6970;51.340;3.240;2022-08-19T07:22:39;20.60;99.90
13798;DHT22;6970;51.340;3.240;2022-08-19T07:25:13;20.60;99.90
13798;DHT22;6970;51.340;3.240;2022-08-19T07:27:43;20.60;99.90
13798;DHT22;6970;51.340;3.240;2022-08-19T07:30:16;20.60;99.90
13798;DHT22;6970;51.340;3.240;2022-08-19T07:32:43;20.70;99.90
13798;DHT22;6970;51.340;3.240;2022-08-19T07:35:10;20.70;99.90
13798;DHT22;6970;51.340;3.240;2022-08-19T07:37:37;20.80;99.90
13798;DHT22;6970;51.340;3.240;2022-08-19T07:40:07;20.90;99.90
13798;DHT22;6970;51.340;3.240;2022-08-19T07:42:35;21.00;99.90
13798;DHT22;6970;51.340;3.240;2022-08-19T07:45:06;21.10;99.90
13798;DHT22;6970;51.340;3.240;2022-08-19T07:47:33;21.20;99.90
13798;DHT22;6970;51.340;3.240;2022-08-19T07:50:17;21.20;99.90
13798;DHT22;6970;51.340;3.240;2022-08-19T07:53:01;21.30;99.90
13798;DHT22;6970;51.340;3.240;2022-08-19T07:55:29;21.30;99.90
13798;DHT22;6970;51.340;3.240;2022-08-19T07:58:11;21.40;99.90
13798;DHT22;6970;51.340;3.240;2022-08-19T08:00:42;21.40;99.90
13798;DHT22;6970;51.340;3.240;2022-08-19T08:03:11;21.40;99.90
13798;DHT22;6970;51.340;3.240;2022-08-19T08:05:42;21.50;99.90
13798;DHT22;6970;51.340;3.240;2022-08-19T08:08:30;21.60;99.90
13798;DHT22;6970;51.340;3.240;2022-08-19T08:11:14;21.60;99.90
13798;DHT22;6970;51.340;3.240;2022-08-19T08:13:46;21.50;99.90
13798;DHT22;6970;51.340;3.240;2022-08-19T08:16:36;21.40;99.90
13798;DHT22;6970;51.340;3.240;2022-08-19T08:19:28;21.40;99.90
13798;DHT22;6970;51.340;3.240;2022-08-19T08:21:59;21.40;99.90
13798;DHT22;6970;51.340;3.240;2022-08-19T08:24:29;21.40;99.90
13798;DHT22;6970;51.340;3.240;2022-08-19T08:27:03;21.40;99.90
13798;DHT22;6970;51.340;3.240;2022-08-19T08:30:02;21.50;99.90
13798;DHT22;6970;51.340;3.240;2022-08-19T08:32:32;21.40;99.90
13798;DHT22;6970;51.340;3.240;2022-08-19T08:35:03;21.50;99.90
13798;DHT22;6970;51.340;3.240;2022-08-19T08:37:33;21.40;99.90
13798;DHT22;6970;51.340;3.240;2022-08-19T08:43:23;21.70;99.90
13798;DHT22;6970;51.340;3.240;2022-08-19T08:47:04;21.80;99.90
13798;DHT22;6970;51.340;3.240;2022-08-19T08:49:29;21.80;99.90
13798;DHT22;6970;51.340;3.240;2022-08-19T08:52:31;21.90;99.90
13798;DHT22;6970;51.340;3.240;2022-08-19T08:55:10;21.90;99.90
13798;DHT22;6970;51.340;3.240;2022-08-19T08:57:39;21.90;99.90
13798;DHT22;6970;51.340;3.240;2022-08-19T09:00:17;22.00;99.90
13798;DHT22;6970;51.340;3.240;2022-08-19T09:02:48;22.00;99.90
13798;DHT22;6970;51.340;3.240;2022-08-19T09:05:17;22.20;99.90
13798;DHT22;6970;51.340;3.240;2022-08-19T09:08:08;22.20;99.90
13798;DHT22;6970;51.340;3.240;2022-08-19T09:10:55;22.20;99.90
13798;DHT22;6970;51.340;3.240;2022-08-19T09:17:03;22.10;99.90
13798;DHT22;6970;51.340;3.240;2022-08-19T09:22:24;22.20;99.90
13798;DHT22;6970;51.340;3.240;2022-08-19T09:24:56;22.20;99.90
13798;DHT22;6970;51.340;3.240;2022-08-19T09:27:28;22.20;99.90
13798;DHT22;6970;51.340;3.240;2022-08-19T09:30:16;22.20;99.90
13798;DHT22;6970;51.340;3.240;2022-08-19T09:32:47;22.10;99.90
13798;DHT22;6970;51.340;3.240;2022-08-19T09:35:24;22.10;99.90
13798;DHT22;6970;51.340;3.240;2022-08-19T09:37:57;22.10;99.90
13798;DHT22;6970;51.340;3.240;2022-08-19T09:40:28;22.20;99.90
13798;DHT22;6970;51.340;3.240;2022-08-19T09:43:02;22.30;99.90
13798;DHT22;6970;51.340;3.240;2022-08-19T09:45:44;22.30;99.90
13798;DHT22;6970;51.340;3.240;2022-08-19T09:48:14;22.40;99.90
13798;DHT22;6970;51.340;3.240;2022-08-19T09:50:49;22.50;99.90
13798;DHT22;6970;51.340;3.240;2022-08-19T09:53:18;22.50;99.90
13798;DHT22;6970;51.340;3.240;2022-08-19T09:55:45;22.50;99.90
13798;DHT22;6970;51.340;3.240;2022-08-19T09:58:12;22.60;99.90
13798;DHT22;6970;51.340;3.240;2022-08-19T10:00:39;22.60;99.90
13798;DHT22;6970;51.340;3.240;2022-08-19T10:03:08;22.70;99.90
13798;DHT22;6970;51.340;3.240;2022-08-19T10:05:36;22.90;99.90
13798;DHT22;6970;51.340;3.240;2022-08-19T10:08:18;22.90;99.90
13798;DHT22;6970;51.340;3.240;2022-08-19T10:10:47;23.00;99.90
13798;DHT22;6970;51.340;3.240;2022-08-19T10:13:19;23.10;99.90
13798;DHT22;6970;51.340;3.240;2022-08-19T10:15:53;23.20;99.90
13798;DHT22;6970;51.340;3.240;2022-08-19T10:18:24;23.20;99.90
13798;DHT22;6970;51.340;3.240;2022-08-19T10:23:40;23.20;99.90
13798;DHT22;6970;51.340;3.240;2022-08-19T10:26:22;23.10;99.90
13798;DHT22;6970;51.340;3.240;2022-08-19T10:28:54;23.00;99.90
13798;DHT22;6970;51.340;3.240;2022-08-19T10:31:26;22.80;99.90
13798;DHT22;6970;51.340;3.240;2022-08-19T10:34:13;22.80;99.90
13798;DHT22;6970;51.340;3.240;2022-08-19T10:36:57;22.80;99.90
13798;DHT22;6970;51.340;3.240;2022-08-19T10:39:30;22.80;99.90
13798;DHT22;6970;51.340;3.240;2022-08-19T10:42:08;22.70;99.90
13798;DHT22;6970;51.340;3.240;2022-08-19T10:44:38;22.70;99.90
13798;DHT22;6970;51.340;3.240;2022-08-19T10:47:09;22.70;99.90
13798;DHT22;6970;51.340;3.240;2022-08-19T10:49:55;22.70;99.90
13798;DHT22;6970;51.340;3.240;2022-08-19T10:52:43;22.80;99.90
13798;DHT22;6970;51.340;3.240;2022-08-19T10:55:18;22.90;99.90
13798;DHT22;6970;51.340;3.240;2022-08-19T10:58:03;23.00;99.90
13798;DHT22;6970;51.340;3.240;2022-08-19T11:00:34;23.00;99.90
13798;DHT22;6970;51.340;3.240;2022-08-19T11:03:09;23.10;99.90
13798;DHT22;6970;51.340;3.240;2022-08-19T11:05:37;23.10;99.90
13798;DHT22;6970;51.340;3.240;2022-08-19T11:08:07;23.10;99.90
13798;DHT22;6970;51.340;3.240;2022-08-19T11:10:53;23.00;99.90
13798;DHT22;6970;51.340;3.240;2022-08-19T11:13:35;22.90;99.90
13798;DHT22;6970;51.340;3.240;2022-08-19T11:16:09;22.80;99.90
13798;DHT22;6970;51.340;3.240;2022-08-19T11:18:41;22.90;99.90
13798;DHT22;6970;51.340;3.240;2022-08-19T11:21:21;23.00;99.90
13798;DHT22;6970;51.340;3.240;2022-08-19T11:23:53;23.30;99.90
13798;DHT22;6970;51.340;3.240;2022-08-19T11:26:24;23.90;99.90
13798;DHT22;6970;51.340;3.240;2022-08-19T11:28:54;24.30;99.90
13798;DHT22;6970;51.340;3.240;2022-08-19T11:31:26;24.40;99.90
13798;DHT22;6970;51.340;3.240;2022-08-19T11:33:59;24.50;99.90
13798;DHT22;6970;51.340;3.240;2022-08-19T11:36:30;24.50;99.90
13798;DHT22;6970;51.340;3.240;2022-08-19T11:39:02;24.60;99.90
13798;DHT22;6970;51.340;3.240;2022-08-19T11:41:29;24.60;99.90
13798;DHT22;6970;51.340;3.240;2022-08-19T11:43:56;24.60;99.90
13798;DHT22;6970;51.340;3.240;2022-08-19T11:46:25;24.60;99.90
13798;DHT22;6970;51.340;3.240;2022-08-19T11:49:05;24.60;99.90
13798;DHT22;6970;51.340;3.240;2022-08-19T11:51:43;24.40;99.90
13798;DHT22;6970;51.340;3.240;2022-08-19T11:54:14;24.30;99.90
13798;DHT22;6970;51.340;3.240;2022-08-19T11:56:45;24.20;99.90
13798;DHT22;6970;51.340;3.240;2022-08-19T11:59:15;24.10;99.90
13798;DHT22;6970;51.340;3.240;2022-08-19T12:01:45;24.10;99.90
13798;DHT22;6970;51.340;3.240;2022-08-19T12:04:12;24.00;99.90
13798;DHT22;6970;51.340;3.240;2022-08-19T12:06:41;23.90;99.90
13798;DHT22;6970;51.340;3.240;2022-08-19T12:09:09;23.70;99.90
13798;DHT22;6970;51.340;3.240;2022-08-19T12:11:38;23.70;99.90
13798;DHT22;6970;51.340;3.240;2022-08-19T12:14:11;23.60;99.90
13798;DHT22;6970;51.340;3.240;2022-08-19T12:16:45;23.60;99.90
13798;DHT22;6970;51.340;3.240;2022-08-19T12:19:21;23.60;99.90
13798;DHT22;6970;51.340;3.240;2022-08-19T12:21:48;23.50;99.90
13798;DHT22;6970;51.340;3.240;2022-08-19T12:24:19;23.40;99.90
13798;DHT22;6970;51.340;3.240;2022-08-19T12:26:53;23.40;99.90
13798;DHT22;6970;51.340;3.240;2022-08-19T12:29:29;23.40;99.90
13798;DHT22;6970;51.340;3.240;2022-08-19T12:31:59;23.40;99.90
13798;DHT22;6970;51.340;3.240;2022-08-19T12:34:33;23.30;99.90
13798;DHT22;6970;51.340;3.240;2022-08-19T12:37:04;23.40;99.90
13798;DHT22;6970;51.340;3.240;2022-08-19T12:39:46;23.50;99.90
13798;DHT22;6970;51.340;3.240;2022-08-19T12:42:14;23.60;99.90
13798;DHT22;6970;51.340;3.240;2022-08-19T12:44:42;23.70;99.90
13798;DHT22;6970;51.340;3.240;2022-08-19T12:47:12;23.70;99.90
13798;DHT22;6970;51.340;3.240;2022-08-19T12:49:41;23.80;99.90
13798;DHT22;6970;51.340;3.240;2022-08-19T12:52:23;23.80;99.90
13798;DHT22;6970;51.340;3.240;2022-08-19T12:54:55;24.00;99.90
13798;DHT22;6970;51.340;3.240;2022-08-19T12:57:26;24.10;99.90
13798;DHT22;6970;51.340;3.240;2022-08-19T13:00:11;24.30;99.90
13798;DHT22;6970;51.340;3.240;2022-08-19T13:02:43;24.60;99.90
13798;DHT22;6970;51.340;3.240;2022-08-19T13:05:15;24.80;99.90
13798;DHT22;6970;51.340;3.240;2022-08-19T13:07:45;25.00;99.90
13798;DHT22;6970;51.340;3.240;2022-08-19T13:10:14;25.10;99.90
13798;DHT22;6970;51.340;3.240;2022-08-19T13:12:46;25.10;99.90
13798;DHT22;6970;51.340;3.240;2022-08-19T13:15:17;25.10;99.90
13798;DHT22;6970;51.340;3.240;2022-08-19T13:17:53;25.20;99.90
13798;DHT22;6970;51.340;3.240;2022-08-19T13:20:24;25.60;99.90
13798;DHT22;6970;51.340;3.240;2022-08-19T13:22:51;25.90;99.90
13798;DHT22;6970;51.340;3.240;2022-08-19T13:25:22;26.10;99.90
13798;DHT22;6970;51.340;3.240;2022-08-19T13:27:52;26.30;99.90
13798;DHT22;6970;51.340;3.240;2022-08-19T13:30:23;26.40;99.90
13798;DHT22;6970;51.340;3.240;2022-08-19T13:33:12;26.40;99.90
13798;DHT22;6970;51.340;3.240;2022-08-19T13:35:56;26.30;99.90
13798;DHT22;6970;51.340;3.240;2022-08-19T13:38:27;26.30;99.90
13798;DHT22;6970;51.340;3.240;2022-08-19T13:41:04;26.40;99.90
13798;DHT22;6970;51.340;3.240;2022-08-19T13:43:41;26.50;99.90
13798;DHT22;6970;51.340;3.240;2022-08-19T13:46:12;26.50;99.90
13798;DHT22;6970;51.340;3.240;2022-08-19T13:48:42;26.50;99.90
13798;DHT22;6970;51.340;3.240;2022-08-19T13:51:09;26.70;99.90
13798;DHT22;6970;51.340;3.240;2022-08-19T13:53:55;26.80;99.90
13798;DHT22;6970;51.340;3.240;2022-08-19T13:56:26;27.00;99.90
13798;DHT22;6970;51.340;3.240;2022-08-19T13:58:53;27.10;99.90
13798;DHT22;6970;51.340;3.240;2022-08-19T14:01:27;27.20;99.90
13798;DHT22;6970;51.340;3.240;2022-08-19T14:03:58;27.20;99.90
13798;DHT22;6970;51.340;3.240;2022-08-19T14:06:28;27.20;99.90
13798;DHT22;6970;51.340;3.240;2022-08-19T14:08:58;27.40;99.90
13798;DHT22;6970;51.340;3.240;2022-08-19T14:11:26;27.50;99.90
13798;DHT22;6970;51.340;3.240;2022-08-19T14:13:57;27.50;99.90
13798;DHT22;6970;51.340;3.240;2022-08-19T14:16:27;27.60;99.90
13798;DHT22;6970;51.340;3.240;2022-08-19T14:18:57;27.50;99.90
13798;DHT22;6970;51.340;3.240;2022-08-19T14:21:27;27.50;99.90
13798;DHT22;6970;51.340;3.240;2022-08-19T14:23:54;27.50;99.90
13798;DHT22;6970;51.340;3.240;2022-08-19T14:26:24;27.40;99.90
13798;DHT22;6970;51.340;3.240;2022-08-19T14:28:55;27.40;99.90
13798;DHT22;6970;51.340;3.240;2022-08-19T14:31:24;27.30;99.90
13798;DHT22;6970;51.340;3.240;2022-08-19T14:33:59;27.30;99.90
13798;DHT22;6970;51.340;3.240;2022-08-19T14:36:29;27.40;99.90
13798;DHT22;6970;51.340;3.240;2022-08-19T14:39:08;27.50;99.90
13798;DHT22;6970;51.340;3.240;2022-08-19T14:41:52;27.50;99.90
13798;DHT22;6970;51.340;3.240;2022-08-19T14:44:22;27.50;99.90
13798;DHT22;6970;51.340;3.240;2022-08-19T14:46:52;27.60;99.90
13798;DHT22;6970;51.340;3.240;2022-08-19T14:49:26;27.60;99.90
13798;DHT22;6970;51.340;3.240;2022-08-19T14:52:00;27.60;99.90
13798;DHT22;6970;51.340;3.240;2022-08-19T14:54:31;27.40;99.90
13798;DHT22;6970;51.340;3.240;2022-08-19T14:56:58;27.20;99.90
13798;DHT22;6970;51.340;3.240;2022-08-19T14:59:28;27.00;99.90
13798;DHT22;6970;51.340;3.240;2022-08-19T15:01:55;26.80;99.90
13798;DHT22;6970;51.340;3.240;2022-08-19T15:04:25;26.70;99.90
13798;DHT22;6970;51.340;3.240;2022-08-19T15:07:02;26.50;99.90
13798;DHT22;6970;51.340;3.240;2022-08-19T15:09:34;26.50;99.90
13798;DHT22;6970;51.340;3.240;2022-08-19T15:12:04;26.30;99.90
13798;DHT22;6970;51.340;3.240;2022-08-19T15:14:35;26.30;99.90
13798;DHT22;6970;51.340;3.240;2022-08-19T15:17:04;26.20;99.90
13798;DHT22;6970;51.340;3.240;2022-08-19T15:19:34;26.20;99.90
13798;DHT22;6970;51.340;3.240;2022-08-19T15:22:05;26.20;99.90
13798;DHT22;6970;51.340;3.240;2022-08-19T15:24:36;26.20;99.90
13798;DHT22;6970;51.340;3.240;2022-08-19T15:27:16;26.10;99.90
13798;DHT22;6970;51.340;3.240;2022-08-19T15:29:50;26.00;99.90
13798;DHT22;6970;51.340;3.240;2022-08-19T15:32:30;25.80;99.90
13798;DHT22;6970;51.340;3.240;2022-08-19T15:34:57;25.70;99.90
13798;DHT22;6970;51.340;3.240;2022-08-19T15:37:31;25.70;99.90
13798;DHT22;6970;51.340;3.240;2022-08-19T15:40:04;25.60;99.90
13798;DHT22;6970;51.340;3.240;2022-08-19T15:42:36;25.50;99.90
13798;DHT22;6970;51.340;3.240;2022-08-19T15:45:06;25.40;99.90
13798;DHT22;6970;51.340;3.240;2022-08-19T15:47:37;25.20;99.90
13798;DHT22;6970;51.340;3.240;2022-08-19T15:50:19;25.20;99.90
13798;DHT22;6970;51.340;3.240;2022-08-19T15:53:05;25.20;99.90
13798;DHT22;6970;51.340;3.240;2022-08-19T15:55:42;25.20;99.90
13798;DHT22;6970;51.340;3.240;2022-08-19T15:58:13;25.20;99.90
13798;DHT22;6970;51.340;3.240;2022-08-19T16:01:06;25.10;99.90
13798;DHT22;6970;51.340;3.240;2022-08-19T16:03:53;25.10;99.90
13798;DHT22;6970;51.340;3.240;2022-08-19T16:06:54;25.10;99.90
13798;DHT22;6970;51.340;3.240;2022-08-19T16:09:27;25.00;99.90
13798;DHT22;6970;51.340;3.240;2022-08-19T16:11:57;24.90;99.90
13798;DHT22;6970;51.340;3.240;2022-08-19T16:14:31;24.80;99.90
13798;DHT22;6970;51.340;3.240;2022-08-19T16:16:58;24.70;99.90
13798;DHT22;6970;51.340;3.240;2022-08-19T16:19:28;24.70;99.90
13798;DHT22;6970;51.340;3.240;2022-08-19T16:21:56;24.60;99.90
13798;DHT22;6970;51.340;3.240;2022-08-19T16:24:29;24.50;99.90
13798;DHT22;6970;51.340;3.240;2022-08-19T16:26:59;24.50;99.90
13798;DHT22;6970;51.340;3.240;2022-08-19T16:29:30;24.50;99.90
13798;DHT22;6970;51.340;3.240;2022-08-19T16:32:08;24.30;99.90
13798;DHT22;6970;51.340;3.240;2022-08-19T16:34:40;24.20;99.90
13798;DHT22;6970;51.340;3.240;2022-08-19T16:37:14;24.20;99.90
13798;DHT22;6970;51.340;3.240;2022-08-19T16:39:44;24.20;99.90
13798;DHT22;6970;51.340;3.240;2022-08-19T16:42:13;24.10;99.90
13798;DHT22;6970;51.340;3.240;2022-08-19T16:44:44;24.10;99.90
13798;DHT22;6970;51.340;3.240;2022-08-19T16:47:12;24.10;99.90